Time;durP1;ratioP1;P1;durP2;ratioP2;P2;SDS_P1;SDS_P2;PMS_P1;PMS_P2;Temp;Humidity;BMP_temperature;BMP_pressure;BME280_temperature;BME280_humidity;BME280_pressure;Samples;Min_cycle;Max_cycle;Signal;HPM_P1;HPM_P2
2022/06/07 00:03:33;;;;;;;2.05;0.93;;;13.10;99.90;;;;;;20746185;28;20058;-83
2022/06/07 00:13:34;;;;;;;3.33;1.20;;;13.20;99.90;;;;;;20753145;28;20041;-83
2022/06/07 00:23:36;;;;;;;2.28;1.10;;;13.10;99.90;;;;;;20732127;28;20087;-83
2022/06/07 00:33:37;;;;;;;4.05;1.20;;;13.10;99.90;;;;;;20743597;28;22819;-83
2022/06/07 00:43:40;;;;;;;4.80;1.33;;;13.20;99.90;;;;;;20752816;28;20303;-83
2022/06/07 00:53:41;;;;;;;5.85;1.20;;;13.30;99.90;;;;;;20748594;28;20503;-83
2022/06/07 01:03:42;;;;;;;2.20;1.15;;;13.30;99.90;;;;;;20759665;28;20060;-83
2022/06/07 01:13:43;;;;;;;3.78;1.63;;;13.20;99.90;;;;;;20760027;28;20095;-83
2022/06/07 01:23:48;;;;;;;2.08;1.15;;;13.20;99.90;;;;;;20749374;28;20046;-83
2022/06/07 01:33:49;;;;;;;4.72;1.23;;;13.30;99.90;;;;;;20758737;28;20041;-83
2022/06/07 01:43:50;;;;;;;3.50;1.45;;;13.30;99.90;;;;;;20783162;28;21353;-83
2022/06/07 01:53:51;;;;;;;3.67;1.33;;;13.30;99.90;;;;;;20759675;28;20498;-83
2022/06/07 02:03:52;;;;;;;2.28;0.98;;;13.50;99.90;;;;;;20728946;28;20045;-84
2022/06/07 02:13:54;;;;;;;2.45;1.50;;;13.30;99.90;;;;;;20758727;28;20045;-83
2022/06/07 02:23:55;;;;;;;2.53;1.00;;;13.20;99.90;;;;;;20757248;28;20390;-83
2022/06/07 02:33:58;;;;;;;3.33;1.95;;;13.30;99.90;;;;;;20728743;28;20037;-83
2022/06/07 02:44:01;;;;;;;3.00;1.58;;;13.50;99.90;;;;;;20648752;28;20494;-84
2022/06/07 02:54:02;;;;;;;4.63;1.55;;;13.40;99.90;;;;;;20712658;28;20037;-83
2022/06/07 03:04:03;;;;;;;3.60;1.75;;;13.30;99.90;;;;;;20689829;28;20409;-83
2022/06/07 03:14:05;;;;;;;4.72;2.40;;;13.30;99.90;;;;;;20719732;28;20045;-83
2022/06/07 03:24:08;;;;;;;4.07;2.40;;;13.20;99.90;;;;;;20712855;28;20499;-83
2022/06/07 03:34:09;;;;;;;3.42;1.85;;;13.30;99.90;;;;;;20764581;28;20524;-84
2022/06/07 03:44:10;;;;;;;3.25;1.85;;;13.20;99.90;;;;;;20750958;28;20050;-83
2022/06/07 03:54:11;;;;;;;6.53;2.65;;;13.20;99.90;;;;;;20748966;28;20445;-84
2022/06/07 04:04:12;;;;;;;4.60;2.03;;;13.10;99.90;;;;;;20731151;28;20064;-83
2022/06/07 04:14:13;;;;;;;3.38;1.42;;;13.30;99.90;;;;;;20731295;28;20041;-83
2022/06/07 04:24:16;;;;;;;3.78;1.63;;;13.30;99.90;;;;;;20736232;28;20494;-84
2022/06/07 04:34:18;;;;;;;4.38;1.70;;;13.30;99.90;;;;;;20736280;28;20041;-83
2022/06/07 04:44:19;;;;;;;5.70;1.65;;;13.50;99.90;;;;;;20716064;28;20041;-83
2022/06/07 04:54:20;;;;;;;4.32;2.00;;;13.50;99.90;;;;;;20725539;28;20519;-83
2022/06/07 05:04:21;;;;;;;3.58;1.70;;;13.60;99.90;;;;;;20719951;28;20038;-83
2022/06/07 05:14:24;;;;;;;3.00;1.75;;;13.70;99.90;;;;;;20718455;28;20152;-83
2022/06/07 05:24:26;;;;;;;3.75;1.45;;;13.70;99.90;;;;;;20738401;28;20136;-83
2022/06/07 05:34:27;;;;;;;1.80;1.05;;;13.80;99.90;;;;;;20739641;28;20516;-83
2022/06/07 05:44:28;;;;;;;2.25;1.25;;;13.90;99.90;;;;;;20738704;28;20049;-84
2022/06/07 05:54:31;;;;;;;4.10;1.65;;;14.10;99.90;;;;;;20730991;28;20400;-83
2022/06/07 06:04:32;;;;;;;3.97;1.98;;;14.20;99.90;;;;;;20728796;28;20045;-83
2022/06/07 06:14:33;;;;;;;3.35;1.38;;;14.20;99.90;;;;;;20762522;28;20038;-82
2022/06/07 06:24:34;;;;;;;7.80;2.72;;;14.20;99.90;;;;;;20716714;28;20425;-83
2022/06/07 06:34:36;;;;;;;3.58;1.98;;;14.30;99.90;;;;;;20721367;28;20054;-82
2022/06/07 06:44:37;;;;;;;2.35;1.17;;;14.50;99.90;;;;;;20731432;28;20046;-82
2022/06/07 06:54:38;;;;;;;4.50;1.75;;;14.70;99.90;;;;;;20737291;28;20053;-81
2022/06/07 07:04:39;;;;;;;2.83;1.42;;;14.80;99.90;;;;;;20697223;28;20057;-81
2022/06/07 07:14:41;;;;;;;2.35;1.10;;;15.10;99.90;;;;;;20730111;28;20820;-81
2022/06/07 07:24:42;;;;;;;2.38;0.80;;;15.20;99.90;;;;;;20743972;28;20205;-82
2022/06/07 07:34:43;;;;;;;6.15;1.83;;;15.10;99.90;;;;;;20744798;28;20042;-83
2022/06/07 07:44:45;;;;;;;2.83;1.40;;;15.50;99.90;;;;;;20718944;28;20052;-82
2022/06/07 07:54:46;;;;;;;3.88;1.95;;;15.40;99.90;;;;;;20699846;28;20401;-82
2022/06/07 08:04:47;;;;;;;4.43;2.78;;;15.70;99.90;;;;;;20714416;28;20046;-82
2022/06/07 08:14:48;;;;;;;3.22;1.05;;;15.70;99.90;;;;;;20719299;28;20045;-82
2022/06/07 08:24:49;;;;;;;3.55;1.48;;;15.80;99.90;;;;;;20719969;28;20037;-82
2022/06/07 08:45:16;;;;;;;2.83;1.67;;;15.50;99.90;;;;;;20727886;28;20048;-82
2022/06/07 08:55:36;;;;;;;3.13;1.40;;;15.50;99.90;;;;;;20711943;28;20125;-83
2022/06/07 09:05:37;;;;;;;3.35;1.42;;;15.80;99.90;;;;;;20723203;28;20042;-82
2022/06/07 09:15:40;;;;;;;3.13;1.55;;;16.10;99.90;;;;;;20646975;28;20045;-83
2022/06/07 09:25:51;;;;;;;2.83;0.88;;;16.40;99.90;;;;;;20728146;28;20038;-83
2022/06/07 09:36:15;;;;;;;4.45;1.42;;;16.50;99.90;;;;;;20702998;28;20042;-84
2022/06/07 09:46:25;;;;;;;2.70;0.93;;;16.60;99.90;;;;;;20721556;28;20464;-82
2022/06/07 09:56:36;;;;;;;2.92;1.25;;;16.80;99.90;;;;;;20710033;28;20038;-82
2022/06/07 10:06:46;;;;;;;3.13;2.05;;;17.30;99.90;;;;;;20718506;28;20056;-82
2022/06/07 10:17:26;;;;;;;2.50;1.10;;;17.60;99.90;;;;;;20713663;28;20398;-83
2022/06/07 10:27:50;;;;;;;2.67;1.52;;;17.60;99.90;;;;;;20749467;28;20043;-83
2022/06/07 10:38:07;;;;;;;3.33;1.77;;;17.80;99.90;;;;;;20739445;28;20057;-83
2022/06/07 10:48:14;;;;;;;2.97;1.75;;;17.80;99.90;;;;;;20707681;28;20333;-83
2022/06/07 10:58:18;;;;;;;2.08;0.80;;;17.60;99.90;;;;;;20688055;28;20045;-82
2022/06/07 11:19:09;;;;;;;4.65;2.20;;;17.60;99.90;;;;;;20699864;28;20061;-82
2022/06/07 11:29:33;;;;;;;2.95;1.67;;;17.90;99.90;;;;;;20689062;28;20050;-83
2022/06/07 11:39:40;;;;;;;1.83;1.00;;;17.90;99.90;;;;;;20700514;28;21372;-83
2022/06/07 11:49:46;;;;;;;2.70;1.47;;;17.70;99.90;;;;;;20673311;28;20064;-83
2022/06/07 11:59:51;;;;;;;4.03;1.88;;;17.60;99.90;;;;;;20723682;28;20199;-83
2022/06/07 12:09:55;;;;;;;2.50;1.38;;;17.40;99.90;;;;;;20695613;28;20037;-83
2022/06/07 12:19:57;;;;;;;6.00;2.63;;;17.40;99.90;;;;;;20713785;28;20599;-83
2022/06/07 12:30:13;;;;;;;3.33;1.17;;;17.50;99.90;;;;;;20723069;28;20041;-83
2022/06/07 12:40:23;;;;;;;5.38;2.33;;;17.80;99.90;;;;;;20709797;28;20505;-86
2022/06/07 12:50:32;;;;;;;4.50;2.15;;;17.90;99.90;;;;;;20697993;28;20198;-85
2022/06/07 13:00:43;;;;;;;3.13;1.35;;;18.10;99.90;;;;;;20680610;28;20065;-82
2022/06/07 13:10:44;;;;;;;5.22;2.20;;;18.70;99.90;;;;;;20686561;28;20048;-82
2022/06/07 13:20:49;;;;;;;4.60;1.90;;;19.40;99.90;;;;;;20695503;28;20072;-85
2022/06/07 13:30:54;;;;;;;5.07;2.67;;;19.50;99.90;;;;;;20701407;28;20509;-85
2022/06/07 13:41:09;;;;;;;4.55;2.25;;;20.10;99.90;;;;;;20720455;28;20041;-84
2022/06/07 14:01:47;;;;;;;3.92;2.13;;;19.70;99.90;;;;;;20705560;28;20385;-84
2022/06/07 14:11:51;;;;;;;3.28;1.35;;;19.70;99.90;;;;;;20694077;28;20034;-84
2022/06/07 14:21:52;;;;;;;5.28;2.75;;;19.90;99.90;;;;;;20704688;28;20052;-84
2022/06/07 14:31:53;;;;;;;3.03;1.75;;;19.80;99.90;;;;;;20702618;28;20034;-84
2022/06/07 14:41:54;;;;;;;5.03;2.40;;;19.60;99.90;;;;;;20704911;28;20049;-84
2022/06/07 14:51:56;;;;;;;2.95;1.33;;;19.50;99.90;;;;;;20682227;28;21086;-84
2022/06/07 15:02:09;;;;;;;4.35;2.70;;;19.50;99.90;;;;;;20711677;28;20046;-84
2022/06/07 15:12:10;;;;;;;5.35;1.80;;;19.70;99.90;;;;;;20716117;28;21688;-84
2022/06/07 15:22:15;;;;;;;4.80;2.50;;;19.60;99.90;;;;;;20736693;28;20041;-84
2022/06/07 15:32:26;;;;;;;3.78;2.17;;;19.40;99.90;;;;;;20716902;28;20053;-84
2022/06/07 15:52:47;;;;;;;2.22;1.38;;;19.60;99.90;;;;;;20755774;28;20136;-85
2022/06/07 16:02:49;;;;;;;2.33;1.02;;;19.40;99.90;;;;;;20763703;28;20034;-85
2022/06/07 16:12:50;;;;;;;2.67;1.75;;;19.20;99.90;;;;;;20777616;28;20038;-85
2022/06/07 16:22:51;;;;;;;1.45;0.43;;;19.20;99.90;;;;;;20756053;28;20049;-85
2022/06/07 16:53:33;;;;;;;2.47;1.17;;;18.60;99.90;;;;;;20813331;28;20042;-83
2022/06/07 17:03:34;;;;;;;2.08;1.25;;;18.50;99.90;;;;;;20819301;28;20445;-84
2022/06/07 17:13:35;;;;;;;1.80;1.02;;;18.30;99.90;;;;;;20819014;28;20522;-84
2022/06/07 17:23:41;;;;;;;1.10;0.50;;;18.10;99.90;;;;;;20818675;28;20037;-84
2022/06/07 17:33:42;;;;;;;2.05;1.05;;;18.00;99.90;;;;;;20880700;28;20057;-84
2022/06/07 17:43:43;;;;;;;2.25;0.95;;;17.90;99.90;;;;;;20819067;28;20041;-86
2022/06/07 17:53:44;;;;;;;1.95;1.00;;;17.80;99.90;;;;;;20844441;28;20048;-85
2022/06/07 18:03:45;;;;;;;2.95;0.70;;;17.50;99.90;;;;;;20817661;28;20037;-84
2022/06/07 18:13:47;;;;;;;1.95;1.00;;;17.40;99.90;;;;;;20806041;28;20064;-85
2022/06/07 18:23:49;;;;;;;1.30;0.50;;;17.30;99.90;;;;;;20822845;28;20054;-85
2022/06/07 18:33:50;;;;;;;1.38;0.77;;;17.30;99.90;;;;;;20838423;28;20037;-85
2022/06/07 18:43:51;;;;;;;1.60;0.85;;;17.20;99.90;;;;;;20839855;28;20059;-85
2022/06/07 18:53:52;;;;;;;2.00;1.05;;;17.20;99.90;;;;;;20842566;28;20038;-85
2022/06/07 19:03:55;;;;;;;2.95;1.33;;;17.00;99.90;;;;;;20839079;28;20042;-85
2022/06/07 19:13:57;;;;;;;2.20;0.88;;;16.90;99.90;;;;;;20822304;28;20045;-84
2022/06/07 19:23:58;;;;;;;2.10;0.90;;;16.80;99.90;;;;;;20786484;28;20045;-85
2022/06/07 19:33:59;;;;;;;2.30;1.30;;;16.60;99.90;;;;;;20768075;28;20059;-85
2022/06/07 19:44:00;;;;;;;1.80;1.05;;;16.50;99.90;;;;;;20772124;28;20045;-85
2022/06/07 19:54:02;;;;;;;4.78;1.70;;;16.40;99.90;;;;;;20734397;28;20056;-85
2022/06/07 20:04:04;;;;;;;3.00;1.35;;;16.20;99.90;;;;;;20755082;28;20061;-85
2022/06/07 20:14:06;;;;;;;2.58;1.10;;;16.10;99.90;;;;;;20769873;28;20042;-85
2022/06/07 20:24:09;;;;;;;2.45;1.08;;;16.10;99.90;;;;;;20756987;28;20041;-85
2022/06/07 20:34:10;;;;;;;4.28;1.88;;;16.10;99.90;;;;;;20799121;28;20036;-85
2022/06/07 20:44:11;;;;;;;2.38;0.90;;;16.00;99.90;;;;;;20755414;28;20586;-85
2022/06/07 20:54:12;;;;;;;2.33;1.00;;;16.00;99.90;;;;;;20788072;28;20037;-85
2022/06/07 21:04:14;;;;;;;2.80;1.20;;;15.90;99.90;;;;;;20779903;28;20041;-85
2022/06/07 21:14:15;;;;;;;3.10;1.27;;;15.70;99.90;;;;;;20771372;28;20401;-86
2022/06/07 21:24:16;;;;;;;3.10;1.58;;;15.60;99.90;;;;;;20779067;28;20044;-85
2022/06/07 21:34:18;;;;;;;2.90;1.30;;;15.40;99.90;;;;;;20765023;28;20044;-84
2022/06/07 21:44:19;;;;;;;1.98;0.85;;;15.50;99.90;;;;;;20783383;28;20052;-85
2022/06/07 21:54:20;;;;;;;3.47;2.15;;;15.30;99.90;;;;;;20836531;28;20048;-85
2022/06/07 22:04:22;;;;;;;3.10;1.10;;;15.20;99.90;;;;;;20805923;28;20044;-84
2022/06/07 22:14:23;;;;;;;2.63;0.95;;;15.10;99.90;;;;;;20765733;28;20045;-85
2022/06/07 22:24:24;;;;;;;2.17;1.10;;;15.20;99.90;;;;;;20763071;28;20076;-85
2022/06/07 22:34:25;;;;;;;3.15;1.23;;;15.20;99.90;;;;;;20768061;28;20040;-84
2022/06/07 22:44:26;;;;;;;2.90;1.38;;;15.30;99.90;;;;;;20792262;28;20056;-85
2022/06/07 22:54:41;;;;;;;4.30;2.35;;;15.30;99.90;;;;;;20772774;28;20063;-84
2022/06/07 23:04:49;;;;;;;4.18;2.00;;;15.30;99.90;;;;;;20781897;28;20074;-84
2022/06/07 23:25:10;;;;;;;4.13;1.67;;;15.60;99.90;;;;;;20773488;28;20045;-85
2022/06/07 23:35:13;;;;;;;4.47;1.52;;;15.70;99.90;;;;;;20771718;28;20041;-85
2022/06/07 23:45:15;;;;;;;2.78;1.67;;;15.70;99.90;;;;;;20770552;28;20076;-84
2022/06/07 23:55:17;;;;;;;3.15;1.83;;;15.70;99.90;;;;;;20788320;28;20546;-84
